EWG9LK LEMH-LOWS
Flight info
| Callsign | EWG9LK |
|---|---|
| Flight time | 1h 29m |
| Altitude | 36000 |
| Route | ISTER DCT BALEN DCT MALUG DCT RASTA RASTA2R |
| Aircraft | A21N/M-SDE2E3FGHIRWXY/LB1 |
Departure
| Time | 2026-05-08 18:34 |
|---|---|
| Airport | Menorca Airport (LEMH) |
Arrival
| Time | 2026-05-08 20:04 |
|---|---|
| Airport | Salzburg Airport (LOWS) |
| Time | Latitude | Longitude | Altitude | Speed | Heading |
|---|---|---|---|---|---|
| 2026-05-08 18:12 | 39.86469 | 4.22393 | 296 ft | 0 kts | 99° |
| 2026-05-08 18:21 | 39.86470 | 4.22385 | 297 ft | 4 kts | 99° |
| 2026-05-08 18:21 | 39.86473 | 4.22357 | 294 ft | 3 kts | 99° |
| 2026-05-08 18:21 | 39.86481 | 4.22327 | 295 ft | 4 kts | 140° |
| 2026-05-08 18:21 | 39.86499 | 4.22323 | 296 ft | 4 kts | 189° |
| 2026-05-08 18:22 | 39.86515 | 4.22327 | 298 ft | 1 kts | 189° |
| 2026-05-08 18:27 | 39.86510 | 4.22326 | 298 ft | 5 kts | 193° |
| 2026-05-08 18:28 | 39.86508 | 4.22325 | 298 ft | 0 kts | 195° |
| 2026-05-08 18:29 | 39.86479 | 4.22311 | 295 ft | 0 kts | 207° |
| 2026-05-08 18:30 | 39.86463 | 4.22304 | 297 ft | 9 kts | 189° |
| 2026-05-08 18:30 | 39.86376 | 4.22296 | 294 ft | 15 kts | 185° |
| 2026-05-08 18:30 | 39.86263 | 4.22275 | 296 ft | 18 kts | 189° |
| 2026-05-08 18:31 | 39.86184 | 4.22196 | 295 ft | 16 kts | 279° |
| 2026-05-08 18:31 | 39.86159 | 4.22084 | 301 ft | 15 kts | 196° |
| 2026-05-08 18:31 | 39.86053 | 4.22061 | 301 ft | 16 kts | 189° |
| 2026-05-08 18:31 | 39.85935 | 4.22036 | 302 ft | 18 kts | 188° |
| 2026-05-08 18:32 | 39.85810 | 4.22012 | 299 ft | 19 kts | 190° |
| 2026-05-08 18:32 | 39.85674 | 4.21983 | 295 ft | 21 kts | 188° |
| 2026-05-08 18:32 | 39.85530 | 4.21940 | 290 ft | 22 kts | 186° |
| 2026-05-08 18:32 | 39.85371 | 4.21922 | 288 ft | 24 kts | 184° |
| 2026-05-08 18:33 | 39.85201 | 4.21883 | 286 ft | 26 kts | 186° |
| 2026-05-08 18:33 | 39.85128 | 4.21803 | 288 ft | 15 kts | 276° |
| 2026-05-08 18:33 | 39.85151 | 4.21665 | 293 ft | 17 kts | 313° |
| 2026-05-08 18:33 | 39.85233 | 4.21653 | 293 ft | 15 kts | 8° |
| 2026-05-08 18:34 | 39.85609 | 4.21732 | 298 ft | 101 kts | 11° |
| 2026-05-08 18:34 | 39.86584 | 4.21947 | 370 ft | 171 kts | 13° |
| 2026-05-08 18:34 | 39.87766 | 4.22183 | 1206 ft | 176 kts | 12° |
| 2026-05-08 18:34 | 39.89032 | 4.22440 | 2013 ft | 197 kts | 18° |
| 2026-05-08 18:35 | 39.90224 | 4.23468 | 2542 ft | 222 kts | 56° |
| 2026-05-08 18:35 | 39.90970 | 4.25383 | 3101 ft | 249 kts | 69° |
| 2026-05-08 18:35 | 39.91691 | 4.27496 | 3928 ft | 259 kts | 67° |
| 2026-05-08 18:35 | 39.92461 | 4.29626 | 4751 ft | 266 kts | 67° |
| 2026-05-08 18:36 | 39.93276 | 4.31829 | 5551 ft | 273 kts | 66° |
| 2026-05-08 18:36 | 39.94121 | 4.34084 | 6361 ft | 279 kts | 65° |
| 2026-05-08 18:36 | 39.94989 | 4.36386 | 7124 ft | 285 kts | 65° |
| 2026-05-08 18:36 | 39.95875 | 4.38722 | 7937 ft | 290 kts | 64° |
| 2026-05-08 18:37 | 39.96781 | 4.41106 | 8739 ft | 296 kts | 64° |
| 2026-05-08 18:37 | 39.97705 | 4.43540 | 9510 ft | 303 kts | 64° |
| 2026-05-08 18:37 | 39.98650 | 4.46034 | 10213 ft | 313 kts | 64° |
| 2026-05-08 18:37 | 39.99643 | 4.48658 | 10604 ft | 333 kts | 64° |
| 2026-05-08 18:38 | 40.00698 | 4.51445 | 10939 ft | 354 kts | 63° |
| 2026-05-08 18:38 | 40.01821 | 4.54412 | 11253 ft | 375 kts | 63° |
| 2026-05-08 18:38 | 40.03009 | 4.57549 | 11541 ft | 395 kts | 63° |
| 2026-05-08 18:38 | 40.04236 | 4.60805 | 12038 ft | 405 kts | 63° |
| 2026-05-08 18:39 | 40.05497 | 4.64129 | 12679 ft | 411 kts | 61° |
| 2026-05-08 18:39 | 40.07064 | 4.67252 | 13307 ft | 414 kts | 47° |
| 2026-05-08 18:39 | 40.09134 | 4.69874 | 13928 ft | 416 kts | 38° |
| 2026-05-08 18:39 | 40.11334 | 4.72352 | 14490 ft | 420 kts | 37° |
| 2026-05-08 18:40 | 40.13561 | 4.74846 | 15044 ft | 424 kts | 37° |
| 2026-05-08 18:40 | 40.15798 | 4.77377 | 15617 ft | 427 kts | 38° |
| 2026-05-08 18:40 | 40.18048 | 4.79939 | 16171 ft | 431 kts | 38° |
| 2026-05-08 18:40 | 40.20312 | 4.82528 | 16718 ft | 434 kts | 38° |
| 2026-05-08 18:41 | 40.22592 | 4.85140 | 17245 ft | 438 kts | 38° |
| 2026-05-08 18:41 | 40.24893 | 4.87775 | 17759 ft | 442 kts | 37° |
| 2026-05-08 18:41 | 40.27229 | 4.90454 | 18025 ft | 452 kts | 38° |
| 2026-05-08 18:41 | 40.29630 | 4.93214 | 18071 ft | 466 kts | 38° |
| 2026-05-08 18:42 | 40.32100 | 4.96058 | 18064 ft | 479 kts | 38° |
| 2026-05-08 18:42 | 40.34642 | 4.98982 | 18194 ft | 486 kts | 38° |
| 2026-05-08 18:42 | 40.37084 | 5.01823 | 18620 ft | 453 kts | 38° |
| 2026-05-08 18:42 | 40.39392 | 5.04550 | 19025 ft | 442 kts | 38° |
| 2026-05-08 18:43 | 40.41675 | 5.07275 | 19446 ft | 446 kts | 39° |
| 2026-05-08 18:43 | 40.43975 | 5.10041 | 19871 ft | 451 kts | 39° |
| 2026-05-08 18:43 | 40.46289 | 5.12844 | 20304 ft | 455 kts | 39° |
| 2026-05-08 18:43 | 40.48616 | 5.15685 | 20741 ft | 458 kts | 39° |
| 2026-05-08 18:44 | 40.50950 | 5.18556 | 21181 ft | 461 kts | 39° |
| 2026-05-08 18:44 | 40.53291 | 5.21459 | 21630 ft | 464 kts | 40° |
| 2026-05-08 18:44 | 40.55640 | 5.24397 | 22087 ft | 466 kts | 40° |
| 2026-05-08 18:44 | 40.57981 | 5.27347 | 22550 ft | 467 kts | 40° |
| 2026-05-08 18:45 | 40.60335 | 5.30313 | 22988 ft | 468 kts | 38° |
| 2026-05-08 18:45 | 40.62859 | 5.32934 | 23224 ft | 471 kts | 35° |
| 2026-05-08 18:45 | 40.65406 | 5.35799 | 23401 ft | 478 kts | 37° |
| 2026-05-08 18:45 | 40.67911 | 5.38702 | 23683 ft | 482 kts | 37° |
| 2026-05-08 18:46 | 40.70420 | 5.41574 | 24056 ft | 485 kts | 37° |
| 2026-05-08 18:46 | 40.72981 | 5.44478 | 24459 ft | 487 kts | 37° |
| 2026-05-08 18:46 | 40.75560 | 5.47387 | 24852 ft | 489 kts | 37° |
| 2026-05-08 18:46 | 40.78154 | 5.50308 | 25247 ft | 492 kts | 37° |
| 2026-05-08 18:47 | 40.80763 | 5.53251 | 25643 ft | 494 kts | 38° |
| 2026-05-08 18:47 | 40.83376 | 5.56210 | 26009 ft | 496 kts | 38° |
| 2026-05-08 18:47 | 40.86001 | 5.59183 | 26366 ft | 498 kts | 38° |
| 2026-05-08 18:47 | 40.88643 | 5.62171 | 26766 ft | 499 kts | 38° |
| 2026-05-08 18:48 | 40.91277 | 5.65151 | 27218 ft | 498 kts | 38° |
| 2026-05-08 18:48 | 40.93904 | 5.68129 | 27675 ft | 497 kts | 38° |
| 2026-05-08 18:48 | 40.96581 | 5.71017 | 28135 ft | 495 kts | 36° |
| 2026-05-08 18:48 | 40.99266 | 5.73852 | 28688 ft | 492 kts | 36° |
| 2026-05-08 18:49 | 41.01932 | 5.76667 | 29205 ft | 489 kts | 37° |
| 2026-05-08 18:49 | 41.04587 | 5.79478 | 29643 ft | 488 kts | 37° |
| 2026-05-08 18:49 | 41.07240 | 5.82295 | 30090 ft | 487 kts | 37° |
| 2026-05-08 18:49 | 41.09883 | 5.85103 | 30439 ft | 487 kts | 37° |
| 2026-05-08 18:50 | 41.12532 | 5.87909 | 30744 ft | 488 kts | 37° |
| 2026-05-08 18:50 | 41.15181 | 5.90725 | 31050 ft | 488 kts | 36° |
| 2026-05-08 18:50 | 41.17835 | 5.93541 | 31357 ft | 489 kts | 36° |
| 2026-05-08 18:50 | 41.19598 | 5.95411 | 31572 ft | 489 kts | 36° |
| 2026-05-08 18:51 | 41.23145 | 5.99193 | 32030 ft | 488 kts | 36° |
| 2026-05-08 18:51 | 41.25794 | 6.02018 | 32354 ft | 488 kts | 36° |
| 2026-05-08 18:51 | 41.28442 | 6.04846 | 32663 ft | 488 kts | 36° |
| 2026-05-08 18:51 | 41.31089 | 6.07668 | 32960 ft | 488 kts | 36° |
| 2026-05-08 18:52 | 41.33744 | 6.10502 | 33274 ft | 487 kts | 35° |
| 2026-05-08 18:52 | 41.36348 | 6.13289 | 33643 ft | 485 kts | 35° |
| 2026-05-08 18:52 | 41.38976 | 6.16109 | 33925 ft | 485 kts | 35° |
| 2026-05-08 18:52 | 41.41605 | 6.18938 | 34220 ft | 484 kts | 36° |
| 2026-05-08 18:53 | 41.44217 | 6.21746 | 34472 ft | 483 kts | 36° |
| 2026-05-08 18:53 | 41.45959 | 6.23616 | 34611 ft | 483 kts | 36° |
| 2026-05-08 18:53 | 41.48572 | 6.26422 | 34806 ft | 483 kts | 36° |
| 2026-05-08 18:53 | 41.51194 | 6.29246 | 34989 ft | 484 kts | 36° |
| 2026-05-08 18:54 | 41.53810 | 6.32070 | 35189 ft | 484 kts | 36° |
| 2026-05-08 18:54 | 41.56417 | 6.34897 | 35368 ft | 484 kts | 36° |
| 2026-05-08 18:54 | 41.59037 | 6.37737 | 35550 ft | 484 kts | 36° |
| 2026-05-08 18:54 | 41.61654 | 6.40567 | 35748 ft | 484 kts | 36° |
| 2026-05-08 18:55 | 41.66888 | 6.46228 | 36060 ft | 485 kts | 36° |
| 2026-05-08 18:55 | 41.69508 | 6.49074 | 36077 ft | 485 kts | 36° |
| 2026-05-08 18:56 | 41.74748 | 6.54776 | 36047 ft | 485 kts | 36° |
| 2026-05-08 18:56 | 41.79931 | 6.60462 | 36041 ft | 485 kts | 36° |
| 2026-05-08 18:57 | 41.85132 | 6.66165 | 36033 ft | 481 kts | 37° |
| 2026-05-08 18:57 | 41.90317 | 6.71837 | 36035 ft | 481 kts | 37° |
| 2026-05-08 18:58 | 41.95497 | 6.77518 | 36029 ft | 481 kts | 37° |
| 2026-05-08 18:58 | 42.00675 | 6.83202 | 36046 ft | 480 kts | 37° |
| 2026-05-08 18:59 | 42.05827 | 6.88862 | 36044 ft | 476 kts | 37° |
| 2026-05-08 18:59 | 42.10942 | 6.94521 | 36040 ft | 476 kts | 37° |
| 2026-05-08 19:00 | 42.16071 | 7.00163 | 36048 ft | 475 kts | 37° |
| 2026-05-08 19:00 | 42.21162 | 7.05789 | 36045 ft | 475 kts | 37° |
| 2026-05-08 19:01 | 42.26259 | 7.11449 | 36037 ft | 474 kts | 37° |
| 2026-05-08 19:01 | 42.31343 | 7.17112 | 36036 ft | 474 kts | 38° |
| 2026-05-08 19:02 | 42.36418 | 7.22788 | 36038 ft | 474 kts | 37° |
| 2026-05-08 19:02 | 42.41497 | 7.28463 | 36049 ft | 473 kts | 38° |
| 2026-05-08 19:03 | 42.46563 | 7.34145 | 36040 ft | 472 kts | 38° |
| 2026-05-08 19:03 | 42.51616 | 7.39821 | 36046 ft | 472 kts | 38° |
| 2026-05-08 19:04 | 42.56642 | 7.45475 | 36044 ft | 472 kts | 38° |
| 2026-05-08 19:04 | 42.61697 | 7.51172 | 36040 ft | 472 kts | 38° |
| 2026-05-08 19:05 | 42.66745 | 7.56888 | 36041 ft | 472 kts | 38° |
| 2026-05-08 19:05 | 42.71785 | 7.62616 | 36044 ft | 472 kts | 38° |
| 2026-05-08 19:06 | 42.76829 | 7.68333 | 36061 ft | 472 kts | 38° |
| 2026-05-08 19:06 | 42.81869 | 7.74074 | 36051 ft | 473 kts | 38° |
| 2026-05-08 19:07 | 42.86918 | 7.79819 | 36045 ft | 473 kts | 38° |
| 2026-05-08 19:07 | 42.91966 | 7.85587 | 36047 ft | 473 kts | 38° |
| 2026-05-08 19:08 | 42.96992 | 7.91370 | 36050 ft | 473 kts | 38° |
| 2026-05-08 19:08 | 43.02043 | 7.97156 | 36035 ft | 473 kts | 38° |
| 2026-05-08 19:09 | 43.07084 | 8.02960 | 36040 ft | 474 kts | 38° |
| 2026-05-08 19:09 | 43.12098 | 8.08734 | 36044 ft | 474 kts | 38° |
| 2026-05-08 19:10 | 43.17130 | 8.14565 | 36050 ft | 473 kts | 38° |
| 2026-05-08 19:10 | 43.22167 | 8.20387 | 36045 ft | 473 kts | 38° |
| 2026-05-08 19:11 | 43.27191 | 8.26212 | 36045 ft | 473 kts | 38° |
| 2026-05-08 19:11 | 43.32206 | 8.32059 | 36047 ft | 473 kts | 38° |
| 2026-05-08 19:12 | 43.37231 | 8.37919 | 36043 ft | 474 kts | 38° |
| 2026-05-08 19:12 | 43.42257 | 8.43802 | 36044 ft | 474 kts | 38° |
| 2026-05-08 19:13 | 43.47279 | 8.49676 | 36049 ft | 474 kts | 38° |
| 2026-05-08 19:13 | 43.52300 | 8.55566 | 36054 ft | 475 kts | 38° |
| 2026-05-08 19:14 | 43.57330 | 8.61489 | 36044 ft | 475 kts | 38° |
| 2026-05-08 19:14 | 43.62326 | 8.67395 | 36042 ft | 475 kts | 38° |
| 2026-05-08 19:15 | 43.67348 | 8.73322 | 36038 ft | 476 kts | 38° |
| 2026-05-08 19:15 | 43.72381 | 8.79279 | 36046 ft | 477 kts | 37° |
| 2026-05-08 19:16 | 43.77417 | 8.85259 | 36043 ft | 477 kts | 37° |
| 2026-05-08 19:16 | 43.82455 | 8.91268 | 36044 ft | 477 kts | 38° |
| 2026-05-08 19:17 | 43.87480 | 8.97264 | 36063 ft | 477 kts | 38° |
| 2026-05-08 19:17 | 43.92503 | 9.03273 | 36044 ft | 477 kts | 37° |
| 2026-05-08 19:18 | 43.97521 | 9.09284 | 36031 ft | 476 kts | 37° |
| 2026-05-08 19:18 | 44.02539 | 9.15313 | 36034 ft | 476 kts | 37° |
| 2026-05-08 19:19 | 44.07555 | 9.21351 | 36048 ft | 476 kts | 37° |
| 2026-05-08 19:19 | 44.12540 | 9.27410 | 36043 ft | 476 kts | 37° |
| 2026-05-08 19:20 | 44.17523 | 9.33473 | 36046 ft | 476 kts | 37° |
| 2026-05-08 19:20 | 44.22488 | 9.39487 | 36057 ft | 475 kts | 37° |
| 2026-05-08 19:21 | 44.27470 | 9.45544 | 36056 ft | 475 kts | 37° |
| 2026-05-08 19:21 | 44.32458 | 9.51587 | 36055 ft | 475 kts | 37° |
| 2026-05-08 19:22 | 44.37442 | 9.57652 | 36062 ft | 475 kts | 37° |
| 2026-05-08 19:22 | 44.42402 | 9.63771 | 36065 ft | 476 kts | 37° |
| 2026-05-08 19:23 | 44.47430 | 9.69934 | 36069 ft | 484 kts | 37° |
| 2026-05-08 19:23 | 44.52547 | 9.76186 | 36064 ft | 491 kts | 37° |
| 2026-05-08 19:24 | 44.57668 | 9.82486 | 36085 ft | 493 kts | 37° |
| 2026-05-08 19:24 | 44.62814 | 9.88847 | 36064 ft | 493 kts | 37° |
| 2026-05-08 19:25 | 44.67966 | 9.95233 | 36065 ft | 493 kts | 37° |
| 2026-05-08 19:25 | 44.73104 | 10.01632 | 36062 ft | 493 kts | 37° |
| 2026-05-08 19:26 | 44.78254 | 10.08033 | 36070 ft | 493 kts | 37° |
| 2026-05-08 19:26 | 44.80782 | 10.11187 | 36050 ft | 480 kts | 37° |
| 2026-05-08 19:26 | 44.83263 | 10.14303 | 36044 ft | 476 kts | 37° |
| 2026-05-08 19:27 | 44.88201 | 10.20517 | 36052 ft | 475 kts | 37° |
| 2026-05-08 19:27 | 44.93139 | 10.26720 | 36031 ft | 475 kts | 37° |
| 2026-05-08 19:27 | 44.95575 | 10.29783 | 35774 ft | 474 kts | 37° |
| 2026-05-08 19:28 | 44.98043 | 10.32883 | 35447 ft | 474 kts | 36° |
| 2026-05-08 19:28 | 45.00505 | 10.35983 | 35096 ft | 474 kts | 36° |
| 2026-05-08 19:28 | 45.02965 | 10.39075 | 34737 ft | 474 kts | 36° |
| 2026-05-08 19:28 | 45.05434 | 10.42173 | 34382 ft | 474 kts | 35° |
| 2026-05-08 19:29 | 45.07899 | 10.45279 | 34022 ft | 475 kts | 35° |
| 2026-05-08 19:29 | 45.10358 | 10.48404 | 33631 ft | 475 kts | 35° |
| 2026-05-08 19:29 | 45.12818 | 10.51539 | 33232 ft | 474 kts | 36° |
| 2026-05-08 19:29 | 45.15269 | 10.54651 | 32834 ft | 473 kts | 36° |
| 2026-05-08 19:30 | 45.17720 | 10.57761 | 32438 ft | 472 kts | 36° |
| 2026-05-08 19:30 | 45.20170 | 10.60862 | 32049 ft | 471 kts | 36° |
| 2026-05-08 19:30 | 45.22604 | 10.63949 | 31668 ft | 469 kts | 36° |
| 2026-05-08 19:30 | 45.25032 | 10.67038 | 31286 ft | 467 kts | 36° |
| 2026-05-08 19:31 | 45.27439 | 10.70113 | 30929 ft | 466 kts | 37° |
| 2026-05-08 19:31 | 45.29836 | 10.73194 | 30585 ft | 463 kts | 37° |
| 2026-05-08 19:31 | 45.32232 | 10.76264 | 30224 ft | 463 kts | 37° |
| 2026-05-08 19:31 | 45.34622 | 10.79326 | 29815 ft | 462 kts | 37° |
| 2026-05-08 19:32 | 45.37012 | 10.82392 | 29390 ft | 463 kts | 37° |
| 2026-05-08 19:32 | 45.39402 | 10.85472 | 28970 ft | 464 kts | 38° |
| 2026-05-08 19:32 | 45.41801 | 10.88553 | 28559 ft | 465 kts | 38° |
| 2026-05-08 19:32 | 45.44168 | 10.91610 | 28155 ft | 465 kts | 38° |
| 2026-05-08 19:33 | 45.46569 | 10.94703 | 27773 ft | 466 kts | 39° |
| 2026-05-08 19:33 | 45.48977 | 10.97807 | 27384 ft | 467 kts | 39° |
| 2026-05-08 19:33 | 45.51397 | 11.00925 | 26995 ft | 468 kts | 39° |
| 2026-05-08 19:33 | 45.53814 | 11.04031 | 26605 ft | 468 kts | 39° |
| 2026-05-08 19:34 | 45.56232 | 11.07153 | 26226 ft | 467 kts | 39° |
| 2026-05-08 19:34 | 45.58632 | 11.10266 | 25851 ft | 464 kts | 40° |
| 2026-05-08 19:34 | 45.61014 | 11.13352 | 25517 ft | 461 kts | 39° |
| 2026-05-08 19:34 | 45.63386 | 11.16422 | 25270 ft | 459 kts | 40° |
| 2026-05-08 19:35 | 45.65742 | 11.19481 | 25037 ft | 457 kts | 40° |
| 2026-05-08 19:35 | 45.68088 | 11.22535 | 24812 ft | 456 kts | 40° |
| 2026-05-08 19:35 | 45.70423 | 11.25586 | 24607 ft | 454 kts | 40° |
| 2026-05-08 19:35 | 45.72755 | 11.28633 | 24385 ft | 452 kts | 40° |
| 2026-05-08 19:36 | 45.75066 | 11.31664 | 24179 ft | 450 kts | 41° |
| 2026-05-08 19:36 | 45.77375 | 11.34691 | 24055 ft | 450 kts | 40° |
| 2026-05-08 19:36 | 45.79680 | 11.37705 | 24042 ft | 449 kts | 40° |
| 2026-05-08 19:36 | 45.81988 | 11.40729 | 24054 ft | 448 kts | 41° |
| 2026-05-08 19:37 | 45.84288 | 11.43751 | 24073 ft | 448 kts | 41° |
| 2026-05-08 19:37 | 45.86591 | 11.46773 | 24082 ft | 449 kts | 41° |
| 2026-05-08 19:37 | 45.88860 | 11.49769 | 24087 ft | 448 kts | 41° |
| 2026-05-08 19:37 | 45.91161 | 11.52798 | 24091 ft | 451 kts | 41° |
| 2026-05-08 19:38 | 45.93517 | 11.55895 | 24097 ft | 465 kts | 41° |
| 2026-05-08 19:38 | 45.95933 | 11.59089 | 24102 ft | 478 kts | 41° |
| 2026-05-08 19:38 | 45.98406 | 11.62371 | 24096 ft | 489 kts | 41° |
| 2026-05-08 19:38 | 46.00927 | 11.65709 | 24090 ft | 493 kts | 41° |
| 2026-05-08 19:39 | 46.03451 | 11.69046 | 24095 ft | 493 kts | 41° |
| 2026-05-08 19:39 | 46.05976 | 11.72392 | 24087 ft | 493 kts | 42° |
| 2026-05-08 19:39 | 46.08495 | 11.75740 | 24080 ft | 493 kts | 42° |
| 2026-05-08 19:39 | 46.11014 | 11.79102 | 24072 ft | 493 kts | 42° |
| 2026-05-08 19:40 | 46.13531 | 11.82456 | 24069 ft | 493 kts | 42° |
| 2026-05-08 19:40 | 46.15196 | 11.84674 | 24068 ft | 493 kts | 42° |
| 2026-05-08 19:40 | 46.17710 | 11.88038 | 24063 ft | 493 kts | 42° |
| 2026-05-08 19:40 | 46.20230 | 11.91411 | 24058 ft | 493 kts | 42° |
| 2026-05-08 19:41 | 46.22740 | 11.94768 | 24055 ft | 493 kts | 42° |
| 2026-05-08 19:41 | 46.25252 | 11.98137 | 24054 ft | 493 kts | 42° |
| 2026-05-08 19:41 | 46.27763 | 12.01510 | 24056 ft | 493 kts | 42° |
| 2026-05-08 19:41 | 46.30276 | 12.04886 | 24056 ft | 493 kts | 42° |
| 2026-05-08 19:42 | 46.32791 | 12.08272 | 24063 ft | 493 kts | 42° |
| 2026-05-08 19:42 | 46.35301 | 12.11654 | 24058 ft | 493 kts | 43° |
| 2026-05-08 19:42 | 46.37806 | 12.15037 | 24058 ft | 493 kts | 43° |
| 2026-05-08 19:42 | 46.40312 | 12.18438 | 24060 ft | 493 kts | 43° |
| 2026-05-08 19:43 | 46.42815 | 12.21836 | 24088 ft | 493 kts | 43° |
| 2026-05-08 19:43 | 46.45322 | 12.25230 | 24098 ft | 493 kts | 43° |
| 2026-05-08 19:43 | 46.47829 | 12.28621 | 24064 ft | 493 kts | 43° |
| 2026-05-08 19:43 | 46.50331 | 12.32015 | 23897 ft | 491 kts | 43° |
| 2026-05-08 19:44 | 46.52828 | 12.35413 | 23694 ft | 490 kts | 43° |
| 2026-05-08 19:44 | 46.55310 | 12.38798 | 23429 ft | 488 kts | 43° |
| 2026-05-08 19:44 | 46.57780 | 12.42174 | 23153 ft | 486 kts | 43° |
| 2026-05-08 19:44 | 46.60241 | 12.45534 | 22883 ft | 484 kts | 43° |
| 2026-05-08 19:45 | 46.62689 | 12.48883 | 22617 ft | 482 kts | 43° |
| 2026-05-08 19:45 | 46.65125 | 12.52216 | 22344 ft | 480 kts | 43° |
| 2026-05-08 19:45 | 46.67548 | 12.55538 | 22069 ft | 475 kts | 43° |
| 2026-05-08 19:45 | 46.69924 | 12.58732 | 21788 ft | 456 kts | 40° |
| 2026-05-08 19:46 | 46.72476 | 12.61321 | 21513 ft | 442 kts | 30° |
| 2026-05-08 19:46 | 46.75132 | 12.63546 | 21245 ft | 439 kts | 29° |
| 2026-05-08 19:46 | 46.80318 | 12.67825 | 20549 ft | 410 kts | 28° |
| 2026-05-08 19:47 | 46.82706 | 12.69800 | 20202 ft | 389 kts | 29° |
| 2026-05-08 19:47 | 46.85009 | 12.71725 | 19642 ft | 376 kts | 29° |
| 2026-05-08 19:47 | 46.87265 | 12.73600 | 18901 ft | 370 kts | 28° |
| 2026-05-08 19:47 | 46.89491 | 12.75449 | 18091 ft | 366 kts | 29° |
| 2026-05-08 19:48 | 46.91693 | 12.77283 | 17246 ft | 362 kts | 29° |
| 2026-05-08 19:48 | 46.93874 | 12.79104 | 16519 ft | 359 kts | 29° |
| 2026-05-08 19:48 | 46.96030 | 12.80908 | 15942 ft | 353 kts | 29° |
| 2026-05-08 19:48 | 46.98131 | 12.82669 | 15591 ft | 342 kts | 29° |
| 2026-05-08 19:49 | 47.00158 | 12.84371 | 15401 ft | 330 kts | 29° |
| 2026-05-08 19:49 | 47.02111 | 12.86009 | 15231 ft | 317 kts | 29° |
| 2026-05-08 19:49 | 47.03997 | 12.87591 | 14985 ft | 309 kts | 29° |
| 2026-05-08 19:49 | 47.05842 | 12.89141 | 14727 ft | 301 kts | 29° |
| 2026-05-08 19:50 | 47.07628 | 12.90645 | 14520 ft | 292 kts | 29° |
| 2026-05-08 19:50 | 47.09372 | 12.92115 | 14182 ft | 287 kts | 29° |
| 2026-05-08 19:50 | 47.11094 | 12.93567 | 13794 ft | 285 kts | 29° |
| 2026-05-08 19:50 | 47.12808 | 12.95016 | 13354 ft | 283 kts | 29° |
| 2026-05-08 19:51 | 47.14516 | 12.96453 | 12894 ft | 281 kts | 29° |
| 2026-05-08 19:51 | 47.16207 | 12.97878 | 12427 ft | 279 kts | 29° |
| 2026-05-08 19:51 | 47.17871 | 12.99283 | 12138 ft | 272 kts | 29° |
| 2026-05-08 19:51 | 47.19483 | 13.00645 | 11960 ft | 261 kts | 29° |
| 2026-05-08 19:52 | 47.21019 | 13.01946 | 11821 ft | 248 kts | 29° |
| 2026-05-08 19:52 | 47.22487 | 13.03189 | 11691 ft | 241 kts | 30° |
| 2026-05-08 19:52 | 47.23924 | 13.04406 | 11587 ft | 242 kts | 29° |
| 2026-05-08 19:52 | 47.25379 | 13.05637 | 11566 ft | 241 kts | 29° |
| 2026-05-08 19:53 | 47.26832 | 13.06869 | 11567 ft | 241 kts | 30° |
| 2026-05-08 19:53 | 47.28280 | 13.08100 | 11578 ft | 240 kts | 30° |
| 2026-05-08 19:53 | 47.29723 | 13.09328 | 11583 ft | 240 kts | 30° |
| 2026-05-08 19:53 | 47.31172 | 13.10560 | 11583 ft | 241 kts | 30° |
| 2026-05-08 19:54 | 47.32629 | 13.11797 | 11583 ft | 241 kts | 29° |
| 2026-05-08 19:54 | 47.34084 | 13.13034 | 11584 ft | 241 kts | 30° |
| 2026-05-08 19:54 | 47.35540 | 13.14272 | 11582 ft | 241 kts | 30° |
| 2026-05-08 19:54 | 47.36997 | 13.15514 | 11582 ft | 241 kts | 30° |
| 2026-05-08 19:55 | 47.38430 | 13.16613 | 11582 ft | 221 kts | 18° |
| 2026-05-08 19:55 | 47.39933 | 13.16826 | 11612 ft | 217 kts | 357° |
| 2026-05-08 19:55 | 47.41442 | 13.16747 | 11561 ft | 216 kts | 357° |
| 2026-05-08 19:55 | 47.42938 | 13.16682 | 11246 ft | 214 kts | 358° |
| 2026-05-08 19:56 | 47.44404 | 13.16623 | 10869 ft | 214 kts | 358° |
| 2026-05-08 19:56 | 47.45891 | 13.16574 | 10488 ft | 213 kts | 358° |
| 2026-05-08 19:56 | 47.47373 | 13.16524 | 10104 ft | 213 kts | 358° |
| 2026-05-08 19:56 | 47.48854 | 13.16472 | 9699 ft | 213 kts | 358° |
| 2026-05-08 19:57 | 47.50344 | 13.16427 | 9272 ft | 214 kts | 358° |
| 2026-05-08 19:57 | 47.51833 | 13.16415 | 8866 ft | 214 kts | 3° |
| 2026-05-08 19:57 | 47.53299 | 13.16822 | 8459 ft | 215 kts | 13° |
| 2026-05-08 19:57 | 47.54775 | 13.17097 | 8046 ft | 214 kts | 358° |
| 2026-05-08 19:58 | 47.56257 | 13.16853 | 7662 ft | 214 kts | 353° |
| 2026-05-08 19:58 | 47.57731 | 13.16579 | 7303 ft | 212 kts | 353° |
| 2026-05-08 19:58 | 47.59169 | 13.16316 | 6977 ft | 206 kts | 353° |
| 2026-05-08 19:58 | 47.60588 | 13.16056 | 6604 ft | 205 kts | 353° |
| 2026-05-08 19:59 | 47.61989 | 13.15668 | 6210 ft | 205 kts | 349° |
| 2026-05-08 19:59 | 47.63384 | 13.15258 | 5804 ft | 204 kts | 349° |
| 2026-05-08 19:59 | 47.64754 | 13.14826 | 5454 ft | 196 kts | 346° |
| 2026-05-08 19:59 | 47.65993 | 13.14197 | 5186 ft | 179 kts | 340° |
| 2026-05-08 20:00 | 47.67149 | 13.13578 | 4847 ft | 174 kts | 340° |
| 2026-05-08 20:00 | 47.68206 | 13.13016 | 4502 ft | 151 kts | 341° |
| 2026-05-08 20:00 | 47.69201 | 13.12502 | 4242 ft | 151 kts | 342° |
| 2026-05-08 20:00 | 47.70175 | 13.11984 | 4017 ft | 151 kts | 342° |
| 2026-05-08 20:01 | 47.71155 | 13.11412 | 3941 ft | 152 kts | 334° |
| 2026-05-08 20:01 | 47.72021 | 13.10526 | 3692 ft | 151 kts | 321° |
| 2026-05-08 20:01 | 47.72732 | 13.09383 | 3422 ft | 151 kts | 308° |
| 2026-05-08 20:01 | 47.73265 | 13.08035 | 3173 ft | 152 kts | 298° |
| 2026-05-08 20:02 | 47.73747 | 13.06647 | 2926 ft | 151 kts | 301° |
| 2026-05-08 20:02 | 47.74248 | 13.05265 | 2694 ft | 152 kts | 298° |
| 2026-05-08 20:02 | 47.74822 | 13.03962 | 2427 ft | 149 kts | 311° |
| 2026-05-08 20:02 | 47.75559 | 13.02939 | 2143 ft | 142 kts | 326° |
| 2026-05-08 20:03 | 47.76407 | 13.02243 | 1870 ft | 137 kts | 336° |
| 2026-05-08 20:03 | 47.77284 | 13.01685 | 1689 ft | 137 kts | 337° |
| 2026-05-08 20:03 | 47.78151 | 13.01132 | 1515 ft | 136 kts | 338° |
| 2026-05-08 20:03 | 47.78958 | 13.00632 | 1425 ft | 94 kts | 341° |
| 2026-05-08 20:04 | 47.79376 | 13.00369 | 1428 ft | 18 kts | 332° |
| 2026-05-08 20:04 | 47.79413 | 13.00267 | 1428 ft | 13 kts | 249° |
| 2026-05-08 20:04 | 47.79377 | 13.00135 | 1426 ft | 15 kts | 247° |
| 2026-05-08 20:04 | 47.79337 | 12.99994 | 1427 ft | 11 kts | 247° |
| 2026-05-08 20:05 | 47.79268 | 12.99959 | 1427 ft | 13 kts | 161° |
| 2026-05-08 20:05 | 47.79179 | 13.00014 | 1427 ft | 15 kts | 156° |
| 2026-05-08 20:05 | 47.79094 | 13.00068 | 1427 ft | 9 kts | 156° |
| 2026-05-08 20:05 | 47.79078 | 13.00025 | 1427 ft | 7 kts | 292° |
| 2026-05-08 20:06 | 47.79090 | 12.99961 | 1427 ft | 4 kts | 283° |
| 2026-05-08 20:06 | 47.79093 | 12.99944 | 1427 ft | 0 kts | 283° |